createdAt,value
2018-04-23T14:03:32.731Z,91903.81
2018-04-23T14:05:59.169Z,91899.70
2018-04-23T14:08:25.431Z,91894.86
2018-04-23T14:10:51.746Z,91894.16
2018-04-23T14:13:18.008Z,91900.72
2018-04-23T14:15:44.435Z,91900.30
2018-04-23T14:18:10.739Z,91901.58
2018-04-23T14:20:37.025Z,91902.17
2018-04-23T14:23:03.300Z,91907.02
2018-04-23T14:25:29.662Z,91904.36
2018-04-23T14:27:55.938Z,91912.14
2018-04-23T14:30:22.232Z,91902.19
2018-04-23T14:32:48.645Z,91907.78
2018-04-23T14:35:14.991Z,91904.11
2018-04-23T14:37:41.320Z,91910.25
2018-04-23T14:40:07.644Z,91905.92
2018-04-23T14:42:33.939Z,91916.48
2018-04-23T14:45:00.240Z,91907.98
2018-04-23T14:47:26.674Z,91909.88
2018-04-23T14:49:52.994Z,91914.78
2018-04-23T14:52:19.301Z,91920.17
2018-04-23T14:54:45.651Z,91923.48
2018-04-23T14:57:11.927Z,91922.16
2018-04-23T14:59:38.217Z,91918.38
2018-04-23T15:02:04.641Z,91921.86
2018-04-23T15:04:31.360Z,91916.00
2018-04-23T15:06:57.657Z,91921.75
2018-04-23T15:09:24.020Z,91920.05
2018-04-23T15:11:52.184Z,91921.34
2018-04-23T15:14:18.452Z,91918.94
2018-04-23T15:16:44.783Z,91919.78
2018-04-23T15:19:11.082Z,91925.28
2018-04-23T15:21:37.354Z,91924.38
2018-04-23T15:24:03.762Z,91929.02
2018-04-23T15:26:30.023Z,91927.39
2018-04-23T15:28:56.384Z,91925.20
2018-04-23T15:31:22.660Z,91933.45
2018-04-23T15:33:48.936Z,91926.42
2018-04-23T15:36:15.324Z,91926.10
2018-04-23T15:38:41.611Z,91926.28
2018-04-23T15:41:07.889Z,91925.50
2018-04-23T15:43:37.346Z,91930.77
2018-04-23T15:46:03.625Z,91925.23
2018-04-23T15:48:29.895Z,91924.83
2018-04-23T15:50:56.212Z,91921.71
2018-04-23T15:53:22.565Z,91923.48
2018-04-23T15:55:49.002Z,91929.58
2018-04-23T15:58:15.260Z,91929.37
2018-04-23T16:00:41.531Z,91920.98
2018-04-23T16:03:07.850Z,91926.80
2018-04-23T16:05:34.355Z,91928.56
2018-04-23T16:08:00.630Z,91929.36
2018-04-23T16:10:26.936Z,91932.84
2018-04-23T16:12:53.249Z,91937.39
2018-04-23T16:15:19.560Z,91937.86
2018-04-23T16:17:46.417Z,91935.69
2018-04-23T16:20:12.686Z,91940.08
2018-04-23T16:22:38.975Z,91941.02
2018-04-23T16:25:06.465Z,91939.77
2018-04-23T16:27:32.726Z,91941.62
2018-04-23T16:29:59.749Z,91938.09
2018-04-23T16:32:25.999Z,91941.61
2018-04-23T16:34:52.267Z,91944.11
2018-04-23T16:37:18.682Z,91940.70
2018-04-23T16:39:44.974Z,91948.52
2018-04-23T16:42:11.344Z,91944.72
2018-04-23T16:44:39.417Z,91941.41
2018-04-23T16:47:03.944Z,91951.87
2018-04-23T16:49:30.338Z,91951.44
2018-04-23T16:51:56.762Z,91949.41
2018-04-23T16:54:23.155Z,91952.02
2018-04-23T16:56:49.805Z,91956.35
2018-04-23T16:59:16.485Z,91961.70
2018-04-23T17:01:42.753Z,91967.89
2018-04-23T17:04:09.018Z,91971.34
2018-04-23T17:06:35.330Z,91972.95
2018-04-23T17:09:01.622Z,91979.48
2018-04-23T17:11:28.748Z,91980.19
2018-04-23T17:13:55.090Z,91977.52
2018-04-23T17:16:21.364Z,91983.31
2018-04-23T17:18:47.749Z,91991.53
2018-04-23T17:21:14.037Z,91992.11
2018-04-23T17:23:40.735Z,92009.64
2018-04-23T17:26:07.135Z,92011.14
2018-04-23T17:28:33.911Z,92008.66
2018-04-23T17:31:00.335Z,92010.89
2018-04-23T17:33:26.780Z,92015.08
2018-04-23T17:35:54.011Z,92015.44
2018-04-23T17:38:20.343Z,92016.41
2018-04-23T17:40:47.222Z,92016.55
2018-04-23T17:43:14.554Z,92016.99
2018-04-23T17:45:40.834Z,92022.77
2018-04-23T17:48:07.182Z,92027.63
2018-04-23T17:50:33.570Z,92033.05
2018-04-23T17:52:59.852Z,92029.45
2018-04-23T17:55:26.231Z,92028.84
2018-04-23T17:57:52.503Z,92032.59
2018-04-23T18:00:18.775Z,92036.24
2018-04-23T18:02:45.151Z,92039.56
2018-04-23T18:05:11.451Z,92034.06
2018-04-23T18:07:37.830Z,92041.88
2018-04-23T18:10:04.118Z,92047.94
2018-04-23T18:12:30.431Z,92054.33
2018-04-23T18:14:56.870Z,92057.05
2018-04-23T18:17:23.256Z,92066.30
2018-04-23T18:19:49.530Z,92081.05
2018-04-23T18:22:18.669Z,92083.56
2018-04-23T18:24:44.960Z,92084.56
2018-04-23T18:27:11.301Z,92085.92
2018-04-23T18:29:37.629Z,92090.64
2018-04-23T18:32:03.978Z,92099.41
2018-04-23T18:34:30.392Z,92095.76
2018-04-23T18:36:56.851Z,92094.30
2018-04-23T18:39:23.143Z,92095.14
2018-04-23T18:41:49.468Z,92101.65
2018-04-23T18:44:15.854Z,92104.33
2018-04-23T18:46:42.152Z,92107.22
2018-04-23T18:49:08.488Z,92107.28
2018-04-23T18:51:34.770Z,92118.75
2018-04-23T18:54:01.115Z,92112.64
2018-04-23T18:56:27.484Z,92123.23
2018-04-23T18:58:53.983Z,92121.85
2018-04-23T19:01:20.259Z,92128.98
2018-04-23T19:03:46.725Z,92126.95
2018-04-23T19:06:13.056Z,92134.71
2018-04-23T19:08:39.338Z,92143.01
2018-04-23T19:11:05.740Z,92138.03
2018-04-23T19:13:32.037Z,92145.82
2018-04-23T19:15:58.433Z,92150.48
2018-04-23T19:18:25.070Z,92154.92
2018-04-23T19:20:51.529Z,92160.07
2018-04-23T19:23:17.875Z,92159.27
2018-04-23T19:25:44.174Z,92161.94
2018-04-23T19:28:11.613Z,92164.97
2018-04-23T19:30:37.912Z,92155.70
2018-04-23T19:33:04.217Z,92159.83
2018-04-23T19:35:30.809Z,92155.91
2018-04-23T19:37:57.219Z,92164.42
2018-04-23T19:40:23.488Z,92165.11
2018-04-23T19:42:49.877Z,92164.70
2018-04-23T19:45:16.351Z,92165.97
2018-04-23T19:47:42.689Z,92168.84
2018-04-23T19:50:09.016Z,92167.73
2018-04-23T19:52:35.440Z,92177.23
2018-04-23T19:55:01.753Z,92175.70
2018-04-23T19:57:29.194Z,92179.19
2018-04-23T19:59:55.905Z,92172.98
2018-04-23T20:02:22.361Z,92179.55
2018-04-23T20:04:48.732Z,92177.60
2018-04-23T20:07:30.133Z,92184.28
2018-04-23T20:09:56.504Z,92182.99
2018-04-23T20:12:22.835Z,92185.17
2018-04-23T20:14:49.142Z,92180.59
2018-04-23T20:17:15.547Z,92183.24
2018-04-23T20:19:41.869Z,92188.27
2018-04-23T20:22:08.148Z,92187.59
2018-04-23T20:24:34.428Z,92197.16
2018-04-23T20:27:00.952Z,92193.61
2018-04-23T20:29:28.140Z,92195.84
2018-04-23T20:31:54.442Z,92196.48
2018-04-23T20:34:20.804Z,92193.45
2018-04-23T20:36:47.105Z,92200.31
2018-04-23T20:39:13.381Z,92198.83
2018-04-23T20:41:39.767Z,92203.55
2018-04-23T20:44:06.067Z,92210.23
2018-04-23T20:46:32.627Z,92208.34
2018-04-23T20:48:58.927Z,92209.33
2018-04-23T20:51:25.290Z,92208.53
2018-04-23T20:53:51.577Z,92206.97
2018-04-23T20:56:20.999Z,92206.77
2018-04-23T20:58:47.702Z,92216.94
2018-04-23T21:01:14.039Z,92214.48
2018-04-23T21:03:40.348Z,92217.59
2018-04-23T21:06:06.673Z,92222.44
2018-04-23T21:08:32.996Z,92221.60
2018-04-23T21:10:59.303Z,92223.14
2018-04-23T21:13:25.682Z,92224.63
2018-04-23T21:15:52.800Z,92222.86
2018-04-23T21:18:19.070Z,92225.81
2018-04-23T21:20:45.381Z,92222.99
2018-04-23T21:23:11.850Z,92230.20
2018-04-23T21:25:38.155Z,92225.03
2018-04-23T21:28:04.513Z,92227.36
2018-04-23T21:30:30.801Z,92228.82
2018-04-23T21:32:57.102Z,92232.27
2018-04-23T21:35:23.654Z,92232.20
2018-04-23T21:37:49.924Z,92228.55
2018-04-23T21:40:16.215Z,92231.36
2018-04-23T21:42:42.722Z,92236.56
2018-04-23T21:45:08.989Z,92235.97
2018-04-23T21:47:35.285Z,92237.05
2018-04-23T21:50:01.564Z,92240.76
2018-04-23T21:52:27.845Z,92236.76
2018-04-23T21:54:57.403Z,92241.59
2018-04-23T21:57:24.462Z,92246.34
2018-04-23T21:59:50.733Z,92247.41
2018-04-23T22:02:17.396Z,92247.16
2018-04-23T22:04:43.658Z,92250.08
2018-04-23T22:07:09.986Z,92256.14
2018-04-23T22:09:36.251Z,92249.33
2018-04-23T22:12:02.532Z,92245.93
2018-04-23T22:14:29.151Z,92247.52
2018-04-23T22:16:55.468Z,92250.27
2018-04-23T22:19:21.738Z,92246.50
2018-04-23T22:21:48.175Z,92243.06
2018-04-23T22:24:14.451Z,92247.95
2018-04-23T22:26:40.776Z,92240.52
2018-04-23T22:29:07.055Z,92249.52
2018-04-23T22:31:33.677Z,92247.46
2018-04-23T22:33:59.938Z,92241.50
2018-04-23T22:36:26.215Z,92245.89
2018-04-23T22:38:52.540Z,92247.45
2018-04-23T22:41:18.821Z,92244.95
2018-04-23T22:43:45.096Z,92246.11
2018-04-23T22:46:11.438Z,92247.77
2018-04-23T22:48:37.731Z,92247.09
2018-04-23T22:51:04.023Z,92246.44
2018-04-23T22:53:30.966Z,92245.89
2018-04-23T22:55:57.233Z,92245.02
2018-04-23T22:58:23.617Z,92251.70
2018-04-23T23:00:49.975Z,92251.38
2018-04-23T23:03:16.408Z,92251.08
2018-04-23T23:05:42.678Z,92247.43
2018-04-23T23:08:08.984Z,92248.64
2018-04-23T23:10:35.241Z,92247.51
2018-04-23T23:13:01.553Z,92241.24
2018-04-23T23:15:28.250Z,92242.27
2018-04-23T23:17:54.519Z,92240.73
2018-04-23T23:20:20.781Z,92237.09
2018-04-23T23:22:47.081Z,92242.03
2018-04-23T23:25:13.354Z,92245.38
2018-04-23T23:27:39.613Z,92247.28
2018-04-23T23:30:05.940Z,92251.50
2018-04-23T23:32:32.223Z,92250.20
2018-04-23T23:34:58.492Z,92251.16
2018-04-23T23:37:25.228Z,92250.94
2018-04-23T23:39:51.568Z,92252.72
2018-04-23T23:42:17.861Z,92255.09
2018-04-23T23:44:44.190Z,92253.12
2018-04-23T23:47:10.538Z,92252.36
2018-04-23T23:49:36.799Z,92246.36
2018-04-23T23:52:03.051Z,92248.64
2018-04-23T23:54:29.761Z,92248.36
2018-04-23T23:56:56.292Z,92248.17
2018-04-23T23:59:22.723Z,92247.98
